McClellan, Pennsylvania
Current Conditions -  °F | °C
As of 9:58 AM on Friday 31 Oct 2014 (Local Time) from KMUI Reporting Station
Overcast Overcast  
Wind Chill: 45°   Ceiling: 5500
Heat Index: 45°   Visibility: 10mi
Dew Point: 34°   Wind: 1mph
Humidity: 67%   Direction: 360°N
Pressure: 30.01"   Gusts: NA
Location:  40.4949°N, 76.8115°W
Report Text: KMUI 311358Z AUTO 36001KT 10SM OVC055 07/01 A3001 RMK AO2 SLP168 T00710013 $
Loading
Personal Weather Stations






























Interactive Weather Map
Tropical Storm Tracking
New forecast layout! Learn more

10-Day Weather Forecast

Advertisements
Track Severe Weather on mobile